Time;durP1;ratioP1;P1;durP2;ratioP2;P2;SDS_P1;SDS_P2;PMS_P1;PMS_P2;Temp;Humidity;BMP_temperature;BMP_pressure;BME280_temperature;BME280_humidity;BME280_pressure;Samples;Min_cycle;Max_cycle;Signal;HPM_P1;HPM_P2
2023/06/21 00:01:26;;;;;;;3.23;2.73;;;;;;;20.47;91.98;99228.72;5072459;28;20245;-70
2023/06/21 00:03:53;;;;;;;4.83;2.97;;;;;;;20.42;91.72;99225.84;5072874;28;20206;-70
2023/06/21 00:06:20;;;;;;;3.23;2.50;;;;;;;20.32;92.10;99226.03;5072248;28;20218;-71
2023/06/21 00:08:47;;;;;;;4.80;2.87;;;;;;;20.28;91.80;99229.16;5072430;28;20211;-71
2023/06/21 00:11:14;;;;;;;3.73;2.50;;;;;;;20.28;92.36;99229.16;5072343;28;20218;-71
2023/06/21 00:13:41;;;;;;;7.57;3.00;;;;;;;20.24;93.02;99227.88;5072548;28;20608;-71
2023/06/21 00:16:08;;;;;;;4.50;3.17;;;;;;;20.20;93.29;99231.78;5072119;28;20229;-71
2023/06/21 00:18:36;;;;;;;4.20;2.97;;;;;;;20.19;94.00;99233.59;5072622;28;20601;-70
2023/06/21 00:21:03;;;;;;;4.50;2.90;;;;;;;20.22;94.34;99229.84;5072009;28;20234;-71
2023/06/21 00:23:30;;;;;;;4.07;3.00;;;;;;;20.24;94.70;99230.47;5072244;28;20210;-71
2023/06/21 00:25:57;;;;;;;3.90;2.87;;;;;;;20.23;95.28;99228.84;5071530;28;20223;-70
2023/06/21 00:28:23;;;;;;;5.70;3.10;;;;;;;20.24;95.18;99238.25;5071581;28;20241;-70
2023/06/21 00:30:50;;;;;;;4.40;2.80;;;;;;;20.23;95.11;99227.06;5071924;28;20220;-70
2023/06/21 00:33:17;;;;;;;3.90;2.70;;;;;;;20.20;94.96;99231.78;5072019;28;20206;-71
2023/06/21 00:35:45;;;;;;;4.00;2.73;;;;;;;20.10;95.12;99226.78;5071888;28;20282;-71
2023/06/21 00:38:12;;;;;;;4.13;2.63;;;;;;;20.06;95.18;99226.31;5071977;28;20205;-70
2023/06/21 00:40:39;;;;;;;4.00;2.93;;;;;;;20.03;95.35;99237.03;5071891;28;20216;-70
2023/06/21 00:43:07;;;;;;;4.53;3.00;;;;;;;20.02;96.31;99225.06;5071957;28;20209;-70
2023/06/21 00:45:38;;;;;;;4.90;3.00;;;;;;;20.00;96.48;99224.41;5071597;28;20239;-70
2023/06/21 00:48:05;;;;;;;4.37;2.80;;;;;;;19.98;96.90;99222.94;5072042;28;20211;-70
2023/06/21 00:50:32;;;;;;;4.47;3.13;;;;;;;19.99;97.04;99225.38;5071427;28;20210;-71
2023/06/21 00:53:00;;;;;;;5.17;3.20;;;;;;;19.96;97.12;99225.72;5071744;28;20204;-71
2023/06/21 00:55:27;;;;;;;4.77;3.10;;;;;;;19.92;97.84;99228.81;5071745;28;20671;-71
2023/06/21 00:57:57;;;;;;;4.27;2.90;;;;;;;19.94;98.03;99227.66;5071729;28;20208;-70
2023/06/21 01:00:25;;;;;;;4.03;2.80;;;;;;;19.95;98.07;99226.69;5071452;28;20291;-71
2023/06/21 01:02:55;;;;;;;3.67;2.83;;;;;;;19.93;98.85;99233.84;5071817;28;20275;-70
2023/06/21 01:05:24;;;;;;;4.00;2.80;;;;;;;19.91;99.20;99230.59;5071152;28;20210;-71
2023/06/21 01:08:00;;;;;;;4.57;2.77;;;;;;;19.91;99.54;99233.19;5070802;28;20201;-71
2023/06/21 01:10:37;;;;;;;4.47;2.93;;;;;;;19.87;99.81;99242.31;5071400;28;20295;-70
2023/06/21 01:13:26;;;;;;;4.40;2.57;;;;;;;19.81;99.97;99242.94;5071626;28;20656;-70
2023/06/21 01:16:00;;;;;;;4.90;3.13;;;;;;;19.68;100.00;99241.69;5071260;28;20693;-70
2023/06/21 01:18:28;;;;;;;4.93;3.17;;;;;;;19.68;100.00;99249.47;5071308;28;20213;-70
2023/06/21 01:20:58;;;;;;;5.83;3.23;;;;;;;19.67;100.00;99242.66;5071012;28;20220;-71
2023/06/21 01:23:40;;;;;;;4.17;2.70;;;;;;;19.72;100.00;99239.56;5071279;28;20213;-71
2023/06/21 01:26:13;;;;;;;4.13;2.97;;;;;;;19.76;100.00;99240.06;5070953;28;20221;-70
2023/06/21 01:28:51;;;;;;;5.13;2.73;;;;;;;19.73;100.00;99245.59;5071054;28;20201;-70
2023/06/21 01:31:23;;;;;;;4.13;2.77;;;;;;;19.70;100.00;99235.53;5070833;28;20229;-69
2023/06/21 01:33:50;;;;;;;4.73;3.20;;;;;;;19.61;100.00;99245.91;5071036;28;20233;-70
2023/06/21 01:36:17;;;;;;;5.17;3.43;;;;;;;19.56;100.00;99242.97;5070634;28;20771;-70
2023/06/21 01:38:44;;;;;;;6.53;3.13;;;;;;;19.53;100.00;99245.09;5070785;28;20197;-71
2023/06/21 01:41:12;;;;;;;5.63;2.93;;;;;;;19.49;100.00;99244.63;5070655;28;20702;-70
2023/06/21 01:43:39;;;;;;;4.40;3.00;;;;;;;19.48;100.00;99248.16;5070902;28;20213;-70
2023/06/21 01:46:07;;;;;;;5.30;3.17;;;;;;;19.54;100.00;99246.72;5070397;28;20226;-71
2023/06/21 01:48:37;;;;;;;5.00;3.17;;;;;;;19.64;100.00;99245.56;5070677;28;20211;-70
2023/06/21 01:51:05;;;;;;;5.60;3.43;;;;;;;19.67;100.00;99242.66;5070490;28;20231;-71
2023/06/21 01:53:34;;;;;;;4.70;3.03;;;;;;;19.70;100.00;99245.91;5070573;28;20214;-70
2023/06/21 01:56:03;;;;;;;5.20;3.17;;;;;;;19.66;100.00;99250.59;5070428;28;20227;-70
2023/06/21 01:58:31;;;;;;;5.17;3.20;;;;;;;19.59;100.00;99253.03;5070534;28;20256;-70
2023/06/21 02:01:00;;;;;;;4.43;3.20;;;;;;;19.59;100.00;99253.03;5070244;28;20650;-70
2023/06/21 02:03:28;;;;;;;5.27;3.00;;;;;;;19.51;100.00;99258.22;5070503;28;20218;-70
2023/06/21 02:05:59;;;;;;;4.50;2.87;;;;;;;19.47;100.00;99256.94;5070396;28;20625;-71
2023/06/21 02:08:27;;;;;;;4.87;2.87;;;;;;;19.52;100.00;99253.81;5070370;28;20572;-71
2023/06/21 02:10:54;;;;;;;4.77;3.10;;;;;;;19.46;100.00;99260.50;5070032;28;20212;-71
2023/06/21 02:13:21;;;;;;;3.90;2.90;;;;;;;19.44;100.00;99259.84;5070618;28;20213;-70
2023/06/21 02:15:48;;;;;;;6.23;2.90;;;;;;;19.36;100.00;99252.88;5069854;28;20271;-70
2023/06/21 02:18:15;;;;;;;4.40;3.00;;;;;;;19.40;100.00;99253.34;5070193;28;20219;-71
2023/06/21 02:20:42;;;;;;;4.80;3.20;;;;;;;19.40;100.00;99251.59;5069849;28;20217;-70
2023/06/21 02:23:10;;;;;;;4.73;3.23;;;;;;;19.31;100.00;99254.34;5070135;28;20202;-69
2023/06/21 02:25:37;;;;;;;4.90;3.07;;;;;;;19.32;100.00;99256.78;5069786;28;20229;-69
2023/06/21 02:28:05;;;;;;;5.30;3.40;;;;;;;19.31;100.00;99249.16;5069949;28;20203;-71
2023/06/21 02:30:32;;;;;;;7.43;3.10;;;;;;;19.36;100.00;99254.66;5070014;28;20425;-71
2023/06/21 02:32:59;;;;;;;6.37;3.20;;;;;;;19.40;100.00;99255.94;5070022;28;20382;-70
2023/06/21 02:35:26;;;;;;;4.70;3.23;;;;;;;19.47;100.00;99253.53;5069978;28;20227;-71
2023/06/21 02:37:52;;;;;;;5.20;2.93;;;;;;;19.44;100.00;99246.88;5069964;28;20217;-70
2023/06/21 02:40:21;;;;;;;5.67;3.37;;;;;;;19.43;100.00;99245.25;5070008;28;20202;-70
2023/06/21 02:42:47;;;;;;;5.67;3.10;;;;;;;19.38;100.00;99247.53;5069776;28;20209;-69
2023/06/21 02:45:14;;;;;;;4.07;2.70;;;;;;;19.34;100.00;99243.63;5069702;28;20206;-70
2023/06/21 02:47:41;;;;;;;4.73;2.80;;;;;;;19.33;100.00;99249.81;5069731;28;20218;-70
2023/06/21 02:50:08;;;;;;;4.90;3.00;;;;;;;19.32;100.00;99245.59;5069505;28;20220;-71
2023/06/21 02:52:35;;;;;;;4.70;3.00;;;;;;;19.40;100.00;99255.94;5069629;28;20577;-71
2023/06/21 02:55:04;;;;;;;3.87;2.90;;;;;;;19.36;100.00;99257.25;5069641;28;20229;-71
2023/06/21 02:57:33;;;;;;;4.80;3.20;;;;;;;19.40;100.00;99261.97;5069599;28;20248;-71
2023/06/21 03:00:00;;;;;;;4.57;2.97;;;;;;;19.42;100.00;99259.19;5069896;28;20282;-71
2023/06/21 03:02:33;;;;;;;5.60;3.37;;;;;;;19.44;100.00;99265.03;5069730;28;20221;-70
2023/06/21 03:05:00;;;;;;;4.53;3.07;;;;;;;19.48;100.00;99262.94;5070036;28;20576;-70
2023/06/21 03:07:28;;;;;;;5.43;3.20;;;;;;;19.49;100.00;99260.19;5069672;28;20226;-70
2023/06/21 03:09:55;;;;;;;7.53;3.23;;;;;;;19.43;100.00;99260.81;5069768;28;20243;-71
2023/06/21 03:12:22;;;;;;;6.50;3.63;;;;;;;19.38;100.00;99257.91;5069466;28;20257;-71
2023/06/21 03:14:50;;;;;;;5.27;3.23;;;;;;;19.40;100.00;99261.13;5069578;28;20232;-70
2023/06/21 03:17:17;;;;;;;4.97;3.00;;;;;;;19.36;100.00;99270.22;5069341;28;20304;-70
2023/06/21 03:19:44;;;;;;;5.30;3.20;;;;;;;19.39;100.00;99259.53;5069874;28;20205;-70
2023/06/21 03:22:11;;;;;;;5.63;3.40;;;;;;;19.39;100.00;99264.72;5069424;28;20336;-71
2023/06/21 03:24:37;;;;;;;4.53;3.03;;;;;;;19.40;100.00;99267.16;5069408;28;20700;-71
2023/06/21 03:27:05;;;;;;;4.50;3.10;;;;;;;19.44;100.00;99267.63;5069306;28;20214;-71
2023/06/21 03:29:33;;;;;;;6.97;3.40;;;;;;;19.47;100.00;99262.13;5069660;28;20673;-70
2023/06/21 03:32:01;;;;;;;3.90;3.10;;;;;;;19.55;100.00;99263.91;5069293;28;20694;-71
2023/06/21 03:34:29;;;;;;;4.50;3.20;;;;;;;19.58;100.00;99273.94;5069489;28;20233;-71
2023/06/21 03:36:55;;;;;;;4.83;3.17;;;;;;;19.62;100.00;99276.03;5069222;28;20279;-71
2023/06/21 03:39:22;;;;;;;4.37;2.97;;;;;;;19.63;100.00;99266.47;5069742;28;20210;-70
2023/06/21 03:41:49;;;;;;;5.33;3.40;;;;;;;19.60;100.00;99265.00;5069207;28;20232;-70
2023/06/21 03:44:16;;;;;;;8.03;3.40;;;;;;;19.68;100.00;99274.59;5069408;28;20204;-70
2023/06/21 03:46:43;;;;;;;5.73;3.80;;;;;;;19.72;100.00;99275.06;5069092;28;20252;-70
2023/06/21 03:49:11;;;;;;;5.07;3.10;;;;;;;19.75;100.00;99277.34;5069395;28;20657;-70
2023/06/21 03:51:39;;;;;;;5.13;3.43;;;;;;;19.77;100.00;99283.19;5069094;28;20232;-71
2023/06/21 03:54:06;;;;;;;5.23;3.27;;;;;;;19.83;100.00;99278.13;5069482;28;20644;-71
2023/06/21 03:56:33;;;;;;;8.30;3.57;;;;;;;19.90;100.00;99278.28;5069080;28;20211;-71
2023/06/21 03:59:00;;;;;;;5.93;3.27;;;;;;;19.90;100.00;99281.69;5069391;28;20200;-70
2023/06/21 04:01:27;;;;;;;5.13;3.57;;;;;;;19.92;100.00;99281.50;5069041;28;20221;-71
2023/06/21 04:03:55;;;;;;;5.87;3.40;;;;;;;19.96;100.00;99288.00;5073056;28;20204;-71
2023/06/21 04:06:23;;;;;;;8.93;3.77;;;;;;;20.05;100.00;99287.00;5072424;28;20721;-71
2023/06/21 04:08:50;;;;;;;5.50;3.57;;;;;;;20.08;100.00;99291.88;5072875;28;20209;-71
2023/06/21 04:11:17;;;;;;;7.53;3.80;;;;;;;20.19;100.00;99289.88;5072131;28;20479;-71
2023/06/21 04:13:44;;;;;;;5.50;3.30;;;;;;;20.27;100.00;99284.66;5072450;28;20294;-70
2023/06/21 04:16:11;;;;;;;4.13;3.30;;;;;;;20.37;100.00;99290.47;5072309;28;20238;-70
2023/06/21 04:18:37;;;;;;;5.67;3.73;;;;;;;20.41;100.00;99291.72;5072637;28;20271;-70
2023/06/21 04:21:04;;;;;;;5.90;3.43;;;;;;;20.51;100.00;99297.53;5072312;28;20229;-70
2023/06/21 04:23:33;;;;;;;5.50;3.30;;;;;;;20.61;100.00;99296.56;5072242;28;20197;-70
2023/06/21 04:26:00;;;;;;;6.20;3.37;;;;;;;20.68;100.00;99297.47;5072246;28;20608;-71
2023/06/21 04:28:27;;;;;;;6.10;3.10;;;;;;;20.79;100.00;99304.91;5072188;28;20198;-71
2023/06/21 04:30:54;;;;;;;5.27;3.60;;;;;;;20.89;100.00;99300.28;5072259;28;20222;-71
2023/06/21 04:33:22;;;;;;;5.43;3.50;;;;;;;21.00;97.64;99302.50;5072148;28;20609;-70
2023/06/21 04:35:48;;;;;;;5.73;3.17;;;;;;;21.16;97.62;99311.97;5071878;28;20597;-71
2023/06/21 04:38:15;;;;;;;5.83;3.80;;;;;;;21.28;95.99;99314.16;5072145;28;20712;-71
2023/06/21 04:40:44;;;;;;;4.20;3.20;;;;;;;21.39;95.61;99317.19;5071960;28;20233;-70
2023/06/21 04:43:11;;;;;;;4.83;3.30;;;;;;;21.46;94.66;99325.91;5071961;28;20203;-70
2023/06/21 04:45:37;;;;;;;4.70;3.40;;;;;;;21.63;95.06;99317.97;5072050;28;20225;-70
2023/06/21 04:48:05;;;;;;;4.90;3.33;;;;;;;21.74;94.18;99320.16;5071833;28;20202;-70
2023/06/21 04:50:32;;;;;;;5.20;3.60;;;;;;;21.96;91.70;99317.66;5071885;28;20679;-70
2023/06/21 04:52:59;;;;;;;4.22;3.10;;;;;;;22.15;92.38;99319.72;5071832;28;20238;-70
2023/06/21 04:55:26;;;;;;;5.50;3.40;;;;;;;22.34;93.23;99329.66;5071755;28;20321;-71
2023/06/21 04:57:55;;;;;;;4.88;3.22;;;;;;;22.50;92.11;99330.44;5071740;28;20214;-70
2023/06/21 05:00:22;;;;;;;8.43;3.40;;;;;;;22.66;91.12;99330.22;5071694;28;20663;-70
2023/06/21 05:02:49;;;;;;;6.45;3.60;;;;;;;22.81;90.62;99338.00;5071478;28;20199;-70
2023/06/21 05:05:16;;;;;;;5.75;3.33;;;;;;;22.96;88.89;99335.41;5071560;28;20206;-71
2023/06/21 05:07:43;;;;;;;5.22;3.63;;;;;;;23.12;86.83;99335.13;5071451;28;20202;-71
2023/06/21 05:10:11;;;;;;;4.47;3.13;;;;;;;23.19;85.28;99338.63;5071563;28;20202;-71
2023/06/21 05:12:38;;;;;;;4.53;3.13;;;;;;;23.35;85.84;99339.38;5070949;28;20281;-70
2023/06/21 05:15:07;;;;;;;5.47;3.30;;;;;;;23.51;86.07;99344.34;5071299;28;20235;-70
2023/06/21 05:17:34;;;;;;;4.63;3.33;;;;;;;23.67;88.24;99341.44;5071233;28;20214;-71
2023/06/21 05:20:02;;;;;;;4.75;3.30;;;;;;;23.72;84.46;99341.72;5071122;28;20203;-70
2023/06/21 05:22:29;;;;;;;4.35;3.25;;;;;;;23.83;85.52;99340.41;5070995;28;20222;-70
2023/06/21 05:24:56;;;;;;;4.22;3.42;;;;;;;23.96;83.85;99342.28;5071147;28;20225;-71
2023/06/21 05:27:23;;;;;;;4.65;3.58;;;;;;;24.04;83.15;99334.31;5070904;28;20238;-70
2023/06/21 05:29:49;;;;;;;4.03;3.08;;;;;;;24.15;81.48;99333.75;5071115;28;20213;-71
2023/06/21 05:32:17;;;;;;;4.68;3.47;;;;;;;24.25;82.42;99337.81;5071130;28;20580;-71
2023/06/21 05:34:44;;;;;;;4.22;3.30;;;;;;;24.35;81.96;99333.06;5070938;28;20576;-72
2023/06/21 05:37:11;;;;;;;5.78;3.58;;;;;;;24.51;81.04;99335.38;5071064;28;20599;-70
2023/06/21 05:39:38;;;;;;;4.80;3.53;;;;;;;24.62;80.13;99336.63;5071192;28;20677;-71
2023/06/21 05:42:06;;;;;;;6.32;3.78;;;;;;;24.77;81.50;99339.09;5070593;28;20215;-71
2023/06/21 05:44:33;;;;;;;4.88;3.55;;;;;;;24.84;79.42;99343.34;5071079;28;20210;-70
2023/06/21 05:46:59;;;;;;;4.90;3.42;;;;;;;24.99;78.93;99337.94;5070608;28;20237;-71
2023/06/21 05:49:28;;;;;;;5.38;3.92;;;;;;;25.20;78.78;99336.19;5070776;28;20199;-71
2023/06/21 05:51:54;;;;;;;5.93;3.97;;;;;;;25.31;76.79;99346.06;5070372;28;20229;-71
2023/06/21 05:54:21;;;;;;;6.93;3.60;;;;;;;25.30;74.57;99342.63;5070747;28;20210;-71
2023/06/21 05:56:48;;;;;;;4.90;3.58;;;;;;;25.46;75.73;99338.81;5070299;28;20639;-71
2023/06/21 05:59:15;;;;;;;5.68;3.92;;;;;;;25.71;76.07;99346.06;5070772;28;20383;-71
2023/06/21 06:01:42;;;;;;;4.93;3.53;;;;;;;25.90;80.11;99344.47;5070360;28;20702;-70
2023/06/21 06:04:08;;;;;;;4.68;3.58;;;;;;;25.99;73.39;99339.81;5070641;28;20217;-71
2023/06/21 06:06:39;;;;;;;4.57;3.28;;;;;;;26.09;72.82;99340.19;5070189;28;20219;-71
2023/06/21 06:09:06;;;;;;;4.25;3.65;;;;;;;26.21;72.17;99341.19;5070701;28;20272;-70
2023/06/21 06:11:33;;;;;;;5.60;3.75;;;;;;;26.31;70.97;99341.53;5069909;28;20211;-71
2023/06/21 06:14:00;;;;;;;3.92;3.53;;;;;;;26.46;71.52;99345.72;5070506;28;20559;-70
2023/06/21 06:16:27;;;;;;;4.72;3.53;;;;;;;26.58;74.32;99346.72;5070028;28;20235;-70
2023/06/21 06:18:54;;;;;;;5.15;3.58;;;;;;;26.75;68.98;99344.41;5070093;28;20202;-71
2023/06/21 06:21:21;;;;;;;4.80;3.53;;;;;;;26.80;68.63;99342.78;5069833;28;20238;-71
2023/06/21 06:23:51;;;;;;;6.05;3.78;;;;;;;27.00;65.43;99344.50;5069642;28;20286;-72
2023/06/21 06:26:22;;;;;;;3.70;3.15;;;;;;;27.20;64.96;99344.38;5068993;28;20581;-71
2023/06/21 06:28:49;;;;;;;4.65;3.38;;;;;;;27.40;64.74;99344.22;5069496;28;20680;-71
2023/06/21 06:31:18;;;;;;;8.65;3.58;;;;;;;27.54;62.45;99346.53;5069527;28;20618;-72
2023/06/21 06:33:45;;;;;;;4.45;3.40;;;;;;;27.72;64.42;99345.78;5069513;28;20199;-71
2023/06/21 06:36:12;;;;;;;5.20;3.20;;;;;;;27.95;61.91;99341.75;5069341;28;20229;-73
2023/06/21 06:38:39;;;;;;;3.92;3.33;;;;;;;27.96;60.12;99348.63;5069805;28;20683;-73
2023/06/21 06:41:07;;;;;;;25.88;13.27;;;;;;;28.00;60.11;99349.78;5069214;28;20734;-73
2023/06/21 06:43:34;;;;;;;6.85;4.80;;;;;;;28.20;64.14;99339.88;5069683;28;20202;-74
2023/06/21 06:46:01;;;;;;;7.75;5.78;;;;;;;28.52;63.67;99342.34;5069536;28;20624;-73
2023/06/21 06:48:28;;;;;;;15.15;9.50;;;;;;;28.75;61.49;99336.41;5069291;28;20205;-74
2023/06/21 06:50:55;;;;;;;6.75;4.45;;;;;;;28.85;60.80;99343.75;5069524;28;20215;-73
2023/06/21 06:53:22;;;;;;;4.10;3.22;;;;;;;28.98;56.15;99350.66;5069806;28;20198;-73
2023/06/21 06:55:51;;;;;;;4.20;3.40;;;;;;;29.08;60.00;99346.47;5069124;28;20235;-73
2023/06/21 06:58:19;;;;;;;4.28;3.22;;;;;;;29.26;60.30;99348.22;5069566;28;20203;-73
2023/06/21 07:00:46;;;;;;;3.88;3.30;;;;;;;29.35;61.97;99348.69;5069243;28;20219;-73
2023/06/21 07:03:13;;;;;;;4.28;3.40;;;;;;;29.44;57.32;99339.47;5069327;28;20260;-73
2023/06/21 07:05:43;;;;;;;5.07;3.63;;;;;;;29.80;59.65;99342.91;5069774;28;20218;-73
2023/06/21 07:08:11;;;;;;;4.07;3.35;;;;;;;29.80;54.09;99344.75;5069314;28;20191;-73
2023/06/21 07:10:38;;;;;;;5.22;3.33;;;;;;;29.97;52.86;99348.31;5069105;28;20269;-73
2023/06/21 07:13:05;;;;;;;4.95;3.55;;;;;;;29.97;55.77;99349.09;5069212;28;20729;-73
2023/06/21 07:15:33;;;;;;;8.95;5.70;;;;;;;30.13;52.34;99346.78;5069298;28;20744;-73
2023/06/21 07:18:00;;;;;;;42.63;23.48;;;;;;;30.47;59.47;99344.31;5069062;28;20210;-73
2023/06/21 07:20:27;;;;;;;4.68;3.70;;;;;;;30.61;53.80;99348.28;5069178;28;20206;-73
2023/06/21 07:22:53;;;;;;;4.63;3.70;;;;;;;30.67;50.42;99347.34;5069151;28;20191;-73
2023/06/21 07:25:20;;;;;;;4.88;3.65;;;;;;;30.84;53.96;99350.84;5069044;28;20219;-72
2023/06/21 07:27:47;;;;;;;4.75;3.67;;;;;;;31.04;54.88;99352.22;5069051;28;20195;-73
2023/06/21 07:30:14;;;;;;;4.88;3.53;;;;;;;31.22;50.53;99359.16;5068825;28;20205;-73
2023/06/21 07:32:43;;;;;;;4.80;3.47;;;;;;;31.18;48.46;99350.88;5069162;28;20218;-73
2023/06/21 07:35:12;;;;;;;5.20;3.85;;;;;;;31.29;51.49;99357.94;5069357;28;20257;-73
2023/06/21 07:37:39;;;;;;;26.15;18.85;;;;;;;31.54;56.29;99357.59;5072595;28;20239;-73
2023/06/21 07:40:08;;;;;;;43.47;30.23;;;;;;;31.60;48.51;99361.09;5072700;28;20205;-73
2023/06/21 07:42:35;;;;;;;7.32;5.57;;;;;;;31.67;51.45;99367.00;5072650;28;20211;-73
2023/06/21 07:45:02;;;;;;;4.50;3.50;;;;;;;31.82;49.61;99355.84;5072580;28;20203;-73
2023/06/21 07:47:29;;;;;;;4.47;4.00;;;;;;;31.78;49.75;99352.91;5072392;28;20664;-73
2023/06/21 07:49:57;;;;;;;4.07;3.42;;;;;;;31.88;51.19;99351.44;5072594;28;20199;-73
2023/06/21 07:52:24;;;;;;;5.25;3.50;;;;;;;31.99;51.23;99347.91;5072465;28;20225;-73
2023/06/21 07:54:51;;;;;;;4.90;3.65;;;;;;;32.19;52.75;99348.16;5072608;28;20206;-73
2023/06/21 07:57:18;;;;;;;4.40;3.40;;;;;;;32.21;48.70;99351.38;5072298;28;20249;-73
2023/06/21 07:59:45;;;;;;;4.38;3.45;;;;;;;32.27;51.07;99343.50;5072637;28;20590;-73
2023/06/21 08:02:13;;;;;;;5.50;3.80;;;;;;;32.52;50.61;99341.16;5072119;28;20234;-73
2023/06/21 08:04:42;;;;;;;4.28;3.40;;;;;;;32.66;48.00;99347.66;5072382;28;20206;-73
2023/06/21 08:07:10;;;;;;;3.75;3.15;;;;;;;32.84;47.03;99343.88;5072301;28;20223;-73
2023/06/21 08:09:37;;;;;;;4.78;3.30;;;;;;;32.76;46.13;99344.34;5072659;28;20217;-73
2023/06/21 08:12:04;;;;;;;4.40;3.38;;;;;;;32.81;44.67;99346.22;5071866;28;20222;-73
2023/06/21 08:14:31;;;;;;;4.13;3.33;;;;;;;32.76;44.22;99341.69;5072342;28;20202;-73
2023/06/21 08:16:58;;;;;;;4.45;3.20;;;;;;;32.69;43.49;99341.84;5071876;28;20239;-72
2023/06/21 08:19:25;;;;;;;6.00;3.58;;;;;;;32.83;43.85;99341.47;5072358;28;20293;-72
2023/06/21 08:21:52;;;;;;;4.63;3.30;;;;;;;32.96;46.27;99341.06;5071827;28;20215;-72
2023/06/21 08:24:20;;;;;;;4.35;3.58;;;;;;;33.39;49.56;99344.59;5071706;28;20222;-73
2023/06/21 08:26:47;;;;;;;3.83;3.35;;;;;;;33.67;46.14;99345.34;5071714;28;20219;-73
2023/06/21 08:29:14;;;;;;;3.50;3.10;;;;;;;33.86;49.10;99343.88;5072172;28;20202;-73
2023/06/21 08:31:40;;;;;;;3.72;3.20;;;;;;;33.92;42.54;99342.84;5071728;28;20626;-73
2023/06/21 08:34:07;;;;;;;5.53;3.30;;;;;;;34.00;41.32;99339.69;5071938;28;20199;-73
2023/06/21 08:36:34;;;;;;;3.88;3.20;;;;;;;34.14;46.85;99339.25;5071619;28;20745;-73
2023/06/21 08:39:01;;;;;;;3.88;3.30;;;;;;;34.12;46.41;99338.69;5071946;28;20221;-72
2023/06/21 08:41:29;;;;;;;4.57;3.38;;;;;;;34.29;42.93;99341.16;5071511;28;20218;-72
2023/06/21 08:43:56;;;;;;;4.50;3.38;;;;;;;34.44;42.65;99339.38;5071718;28;20619;-72
2023/06/21 08:46:27;;;;;;;3.75;3.17;;;;;;;34.45;44.24;99346.25;5071549;28;20218;-73
2023/06/21 08:49:00;;;;;;;3.97;3.28;;;;;;;34.39;42.19;99347.31;5070788;28;20201;-72
2023/06/21 08:51:27;;;;;;;4.25;3.53;;;;;;;34.08;40.33;99345.59;5071370;28;20215;-72
2023/06/21 08:54:01;;;;;;;4.15;3.25;;;;;;;34.49;45.12;99335.91;5071512;28;20206;-73
2023/06/21 08:56:34;;;;;;;4.10;3.47;;;;;;;34.61;43.54;99335.69;5071235;28;20281;-73
2023/06/21 08:59:06;;;;;;;4.32;3.25;;;;;;;34.82;42.39;99339.16;5071511;28;20270;-73
2023/06/21 09:01:40;;;;;;;4.68;3.63;;;;;;;34.96;45.21;99334.13;5071138;28;20219;-73
2023/06/21 09:04:10;;;;;;;4.07;3.67;;;;;;;34.95;40.97;99335.22;5071256;28;20235;-73
2023/06/21 09:06:37;;;;;;;5.15;3.30;;;;;;;35.18;44.99;99334.72;5071451;28;20636;-73
2023/06/21 09:09:04;;;;;;;3.38;3.00;;;;;;;35.45;42.39;99341.59;5071015;28;20198;-72
2023/06/21 09:11:35;;;;;;;6.82;3.38;;;;;;;35.54;42.60;99334.66;5070777;28;20218;-72
2023/06/21 09:14:03;;;;;;;5.40;3.25;;;;;;;35.40;44.30;99328.28;5071103;28;20225;-72
2023/06/21 09:16:30;;;;;;;3.85;3.08;;;;;;;35.07;37.61;99325.13;5071006;28;20257;-71
2023/06/21 09:18:58;;;;;;;3.55;3.00;;;;;;;35.02;36.74;99327.75;5071078;28;20202;-71
2023/06/21 09:21:26;;;;;;;4.20;3.10;;;;;;;35.09;37.90;99325.69;5070972;28;20245;-71
2023/06/21 09:23:53;;;;;;;4.75;3.50;;;;;;;35.06;36.11;99326.22;5070895;28;20214;-71
2023/06/21 09:26:20;;;;;;;4.30;3.50;;;;;;;34.84;38.26;99327.22;5070771;28;20222;-71
2023/06/21 09:28:48;;;;;;;4.10;3.50;;;;;;;34.74;39.59;99327.22;5070511;28;20198;-71
2023/06/21 09:31:15;;;;;;;4.45;3.50;;;;;;;34.86;40.75;99324.31;5070722;28;20218;-71
2023/06/21 09:33:43;;;;;;;6.68;3.78;;;;;;;34.77;39.21;99326.69;5070567;28;21275;-71
2023/06/21 09:36:10;;;;;;;3.75;3.25;;;;;;;34.16;38.54;99323.88;5070481;28;20222;-70
2023/06/21 09:38:38;;;;;;;4.97;3.80;;;;;;;34.10;39.34;99330.22;5070617;28;20202;-71
2023/06/21 09:41:07;;;;;;;4.10;3.33;;;;;;;34.00;41.03;99329.06;5070303;28;20706;-71
2023/06/21 09:43:40;;;;;;;3.88;3.40;;;;;;;33.93;44.82;99325.88;5070559;28;20199;-71
2023/06/21 09:46:11;;;;;;;3.78;3.20;;;;;;;33.81;44.10;99330.59;5070268;28;20218;-71
2023/06/21 09:48:39;;;;;;;4.78;3.60;;;;;;;33.61;38.83;99331.28;5070475;28;20199;-70
2023/06/21 09:51:09;;;;;;;4.38;3.47;;;;;;;33.59;40.33;99323.56;5070361;28;20215;-70
2023/06/21 09:53:36;;;;;;;3.90;3.22;;;;;;;33.47;39.68;99330.88;5070233;28;20269;-71
2023/06/21 09:56:03;;;;;;;4.07;3.60;;;;;;;33.57;41.08;99327.53;5070063;28;20218;-70
2023/06/21 09:58:32;;;;;;;4.15;3.30;;;;;;;33.44;39.95;99323.44;5069999;28;20201;-71
2023/06/21 10:00:59;;;;;;;4.13;3.40;;;;;;;33.59;39.80;99318.25;5070075;28;20322;-71
2023/06/21 10:03:28;;;;;;;4.63;3.47;;;;;;;33.66;41.49;99317.22;5069936;28;20198;-71
2023/06/21 10:05:56;;;;;;;6.13;3.47;;;;;;;33.91;40.28;99314.72;5070265;28;20603;-70
2023/06/21 10:08:24;;;;;;;4.07;3.53;;;;;;;34.07;41.77;99318.28;5069923;28;20207;-70
2023/06/21 10:10:51;;;;;;;4.50;3.53;;;;;;;33.73;40.11;99313.31;5069841;28;20218;-71
2023/06/21 10:13:24;;;;;;;3.83;3.25;;;;;;;34.01;43.22;99313.97;5069670;28;20198;-70
2023/06/21 10:15:51;;;;;;;4.82;3.30;;;;;;;34.10;41.65;99322.25;5069940;28;20214;-71
2023/06/21 10:18:18;;;;;;;4.38;3.72;;;;;;;34.06;40.85;99315.84;5069782;28;20223;-71
2023/06/21 10:20:50;;;;;;;4.57;3.60;;;;;;;34.09;40.08;99310.81;5069806;28;20706;-71
2023/06/21 10:23:18;;;;;;;4.82;3.55;;;;;;;34.14;39.63;99318.03;5069680;28;20194;-70
2023/06/21 10:25:47;;;;;;;4.10;3.38;;;;;;;34.12;38.13;99318.25;5069699;28;20227;-71
2023/06/21 10:28:16;;;;;;;5.60;3.78;;;;;;;34.34;40.61;99312.78;5069726;28;20230;-71
2023/06/21 10:30:45;;;;;;;4.72;3.60;;;;;;;34.17;38.86;99322.81;5069615;28;20214;-71
2023/06/21 10:33:15;;;;;;;4.78;3.50;;;;;;;34.28;40.69;99315.69;5069590;28;20571;-71
2023/06/21 10:35:45;;;;;;;4.63;3.75;;;;;;;34.23;38.01;99311.16;5069765;28;20218;-71
2023/06/21 10:38:23;;;;;;;4.10;3.58;;;;;;;34.26;39.62;99315.94;5069541;28;20506;-71
2023/06/21 10:40:51;;;;;;;4.35;3.90;;;;;;;34.23;39.85;99322.56;5069555;28;20218;-71
2023/06/21 10:43:20;;;;;;;5.68;4.15;;;;;;;34.16;41.59;99321.22;5069314;28;20752;-70
2023/06/21 10:45:49;;;;;;;5.03;4.13;;;;;;;34.41;40.67;99313.34;5069547;28;20223;-71
2023/06/21 10:48:18;;;;;;;5.28;4.10;;;;;;;34.55;38.92;99315.50;5069685;28;20303;-71
2023/06/21 10:50:46;;;;;;;4.20;3.60;;;;;;;34.38;38.50;99311.19;5069499;28;20718;-71
2023/06/21 10:53:18;;;;;;;5.43;4.30;;;;;;;34.21;37.88;99313.25;5069342;28;20198;-71
2023/06/21 10:55:46;;;;;;;6.40;4.28;;;;;;;33.84;39.52;99308.06;5069469;28;20288;-71
2023/06/21 10:58:13;;;;;;;4.95;3.97;;;;;;;33.50;41.26;99309.16;5069318;28;20231;-71
2023/06/21 11:00:43;;;;;;;4.90;3.58;;;;;;;33.47;39.65;99304.38;5069377;28;20222;-71
2023/06/21 11:03:12;;;;;;;4.97;4.00;;;;;;;33.54;38.82;99299.69;5069328;28;20199;-70
2023/06/21 11:05:40;;;;;;;4.68;3.83;;;;;;;33.55;38.50;99308.44;5069501;28;20765;-70
2023/06/21 11:08:09;;;;;;;4.93;4.03;;;;;;;33.32;38.98;99307.72;5069381;28;20202;-72
2023/06/21 11:10:43;;;;;;;4.25;3.50;;;;;;;33.52;39.24;99303.66;5070112;28;20218;-72
2023/06/21 11:13:11;;;;;;;5.15;3.65;;;;;;;33.70;38.32;99297.91;5073367;28;20199;-72
2023/06/21 11:15:39;;;;;;;4.60;3.83;;;;;;;33.85;36.96;99299.81;5073270;28;20222;-72
2023/06/21 11:18:07;;;;;;;4.55;3.65;;;;;;;34.21;44.47;99295.50;5073318;28;20230;-72
2023/06/21 11:20:45;;;;;;;4.68;3.80;;;;;;;34.35;40.85;99298.44;5073083;28;20195;-72
2023/06/21 11:23:16;;;;;;;4.95;4.05;;;;;;;34.21;38.40;99297.31;5073398;28;20228;-72
2023/06/21 11:25:51;;;;;;;4.75;3.50;;;;;;;33.77;36.85;99297.66;5073043;28;20310;-72
2023/06/21 11:28:26;;;;;;;4.57;3.67;;;;;;;33.66;38.00;99290.72;5072969;28;20206;-72
2023/06/21 11:31:12;;;;;;;4.35;3.53;;;;;;;33.96;40.02;99293.50;5073151;28;20218;-72
2023/06/21 11:33:53;;;;;;;4.05;3.42;;;;;;;34.00;39.28;99291.91;5073026;28;20199;-72
2023/06/21 11:36:25;;;;;;;4.60;3.80;;;;;;;33.95;38.25;99291.94;5072749;28;20223;-72